Paisley, United Kingdom

9:03 PM BST on August 04, 2015 (GMT +0100)
IRENFREW4 | | Change Station
CLOSE
Current Station
Personal Weather Station
Location: Inchinnan, RENFREW
Elevation: 0 ft
Nearby Weather Stations

Elev 0 ft 55.89 °N, 4.43 °W | Updated 3 minutes ago

Mostly Cloudy
Mostly Cloudy
58.8 °F
Feels Like 58.8 °F
N
3.0
Wind Variable Wind from WNW
Gusts 6.0 mph

Today
High -- | Low -- °F
--% Chance of Precip.
Yesterday
High -- | Low -- °F
Precip. -- in
5:27 AM 9:19 PM
Waning Gibbous, 75% visible
Pressure 29.62 in
Visibility 6.2 miles
Clouds Mostly Cloudy 3200 ft
Mostly Cloudy 4700 ft
Dew Point 53 °F
Humidity 82%
Rainfall 0.25 in
Snow Depth Not available.
UV 0.0 out of 12
Pollen Not available.
Air Quality Not available.
Flu Activity Not available.
METAR EGPF 041950Z 22013KT 9999 BKN032 BKN047 15/11 Q1003

More Conditions Fewer Conditions

Pressure 29.62 in
Visibility 6.2 miles
Clouds Mostly Cloudy 3200 ft
Mostly Cloudy 4700 ft
Dew Point 53 °F
Humidity 82%
Rainfall 0.25 in
Snow Depth Not available.
UV 0.0 out of 12
Pollen Not available.
Air Quality Not available.
Flu Activity Not available.
METAR EGPF 041950Z 22013KT 9999 BKN032 BKN047 15/11 Q1003

More Conditions Fewer Conditions

10-Day Weather Forecast

×

Almanac

Astronomy

Aug. 04, 2015 Rise Set
Actual Time
Civil Twilight
Nautical Twilight
Astronomical Twilight
Moon
Length of Visible Light
Length of Day
Tomorrow will be .
, % of the Moon is Illuminated

Today's Extremes

Country Highs Country Lows

Community

WunderPhotos

Upload Photos

1,843,962 photos uploaded!

WunderBlogs® & News

Nearby

Air Quality

  Air Quality AQ Index Pollutant
Not available.

Snow Depth

Station Depth Elevation

Earthquake Activity

City Distance Mag. Time & Date
Minimum magnitude displayed is 2.5.

Coastal Water Temperatures

Place Temperature

Stations

Nearby Weather Stations

Station Location Temp. Windchill Dew Point Humidity Wind Precip. Elev Updated Type